createdAt,value
2019-02-05T00:10:06.671Z,26.82
2019-02-05T00:13:17.650Z,24.30
2019-02-05T00:16:56.335Z,25.08
2019-02-05T00:23:47.032Z,26.80
2019-02-05T00:31:12.060Z,24.90
2019-02-05T00:34:40.352Z,32.25
2019-02-05T00:56:17.622Z,21.17
2019-02-05T01:22:10.013Z,21.73
2019-02-05T01:25:33.608Z,27.67
2019-02-05T01:31:57.237Z,21.33
2019-02-05T01:34:28.959Z,25.08
2019-02-05T01:37:00.910Z,20.43
2019-02-05T01:39:34.704Z,23.30
2019-02-05T01:42:05.387Z,22.25
2019-02-05T01:44:47.676Z,20.52
2019-02-05T01:47:18.348Z,22.70
2019-02-05T01:49:49.551Z,18.75
2019-02-05T01:52:24.420Z,22.13
2019-02-05T01:55:01.588Z,17.42
2019-02-05T01:57:35.707Z,17.27
2019-02-05T02:00:08.643Z,22.13
2019-02-05T02:02:41.768Z,19.62
2019-02-05T02:05:12.858Z,22.52
2019-02-05T02:07:46.863Z,26.68
2019-02-05T02:10:20.835Z,28.15
2019-02-05T02:12:53.286Z,22.77
2019-02-05T02:15:25.177Z,22.82
2019-02-05T02:17:57.613Z,28.32
2019-02-05T02:20:27.987Z,26.25
2019-02-05T02:23:00.817Z,27.05
2019-02-05T02:25:32.528Z,32.58
2019-02-05T02:28:04.632Z,37.55
2019-02-05T02:30:41.923Z,29.18
2019-02-05T02:33:12.272Z,25.15
2019-02-05T02:35:42.634Z,29.05
2019-02-05T02:38:14.514Z,24.40
2019-02-05T02:40:44.911Z,36.38
2019-02-05T02:43:18.726Z,27.02
2019-02-05T02:45:48.948Z,28.12
2019-02-05T02:48:22.176Z,23.38
2019-02-05T02:53:39.972Z,28.27
2019-02-05T02:56:11.742Z,26.27
2019-02-05T02:58:42.930Z,28.47
2019-02-05T03:01:13.542Z,24.00
2019-02-05T03:03:43.751Z,22.98
2019-02-05T03:06:15.029Z,32.13
2019-02-05T03:08:46.787Z,33.60
2019-02-05T03:11:18.377Z,32.60
2019-02-05T03:13:48.698Z,31.48
2019-02-05T03:16:20.594Z,24.05
2019-02-05T03:18:53.059Z,26.65
2019-02-05T03:21:24.071Z,27.42
2019-02-05T03:23:54.454Z,26.45
2019-02-05T03:26:29.420Z,26.93
2019-02-05T03:29:02.197Z,29.87
2019-02-05T03:31:34.823Z,26.37
2019-02-05T03:34:05.796Z,26.87
2019-02-05T03:36:39.399Z,20.88
2019-02-05T03:39:13.261Z,24.92
2019-02-05T03:41:46.049Z,31.07
2019-02-05T03:44:17.556Z,32.88
2019-02-05T03:46:48.536Z,30.37
2019-02-05T03:49:19.786Z,28.98
2019-02-05T03:52:31.842Z,34.23
2019-02-05T03:56:00.091Z,33.95
2019-02-05T03:59:08.401Z,28.20
2019-02-05T04:02:15.084Z,31.17
2019-02-05T04:05:21.499Z,25.17
2019-02-05T04:08:34.809Z,24.43
2019-02-05T04:11:54.302Z,26.23
2019-02-05T04:18:32.932Z,24.52
2019-02-05T04:22:02.656Z,22.27
2019-02-05T04:25:24.121Z,28.50
2019-02-05T04:28:32.246Z,33.18
2019-02-05T04:31:13.007Z,25.72
2019-02-05T04:34:49.603Z,25.92
2019-02-05T04:37:57.400Z,25.80
2019-02-05T04:41:03.810Z,31.73
2019-02-05T04:44:11.316Z,25.60
2019-02-05T04:47:19.516Z,29.15
2019-02-05T04:50:11.872Z,28.07
2019-02-05T04:53:35.236Z,30.85
2019-02-05T04:56:57.824Z,35.70
2019-02-05T05:00:12.133Z,26.15
2019-02-05T05:03:14.890Z,22.73
2019-02-05T05:06:18.948Z,24.00
2019-02-05T05:09:04.571Z,20.92
2019-02-05T05:11:37.136Z,32.03
2019-02-05T05:14:08.719Z,30.55
2019-02-05T05:16:38.988Z,26.80
2019-02-05T05:19:09.869Z,29.60
2019-02-05T05:21:40.528Z,29.70
2019-02-05T05:24:10.721Z,27.00
2019-02-05T05:30:29.987Z,20.88
2019-02-05T05:33:02.236Z,23.70
2019-02-05T05:35:43.372Z,30.68
2019-02-05T05:38:05.977Z,31.20
2019-02-05T05:40:38.684Z,28.35
2019-02-05T05:43:09.615Z,25.52
2019-02-05T05:45:39.948Z,35.20
2019-02-05T05:48:12.501Z,24.95
2019-02-05T05:50:43.488Z,27.42
2019-02-05T05:53:15.205Z,26.02
2019-02-05T05:55:45.548Z,24.98
2019-02-05T05:58:23.042Z,32.73
2019-02-05T06:00:51.477Z,27.27
2019-02-05T06:03:22.665Z,27.77
2019-02-05T06:05:53.768Z,29.07
2019-02-05T06:08:30.711Z,25.00
2019-02-05T06:11:01.033Z,27.85
2019-02-05T06:13:31.154Z,29.48
2019-02-05T06:16:01.381Z,33.40
2019-02-05T06:18:31.671Z,29.55
2019-02-05T06:21:01.859Z,32.95
2019-02-05T06:23:35.166Z,31.70
2019-02-05T06:26:06.927Z,31.75
2019-02-05T06:28:40.756Z,25.55
2019-02-05T06:31:10.982Z,35.03
2019-02-05T06:33:44.480Z,24.55
2019-02-05T06:36:14.701Z,32.83
2019-02-05T06:38:44.956Z,28.32
2019-02-05T06:41:15.137Z,32.00
2019-02-05T06:43:45.352Z,26.80
2019-02-05T06:46:15.525Z,31.87
2019-02-05T06:48:45.761Z,26.97
2019-02-05T06:51:15.954Z,27.30
2019-02-05T06:53:46.216Z,33.35
2019-02-05T06:56:35.497Z,30.35
2019-02-05T06:59:05.887Z,28.60
2019-02-05T07:01:36.114Z,29.80
2019-02-05T07:04:08.297Z,35.60
2019-02-05T07:06:38.875Z,34.60
2019-02-05T07:09:10.402Z,30.25
2019-02-05T07:11:41.476Z,27.95
2019-02-05T07:14:11.635Z,34.92
2019-02-05T07:16:41.955Z,33.80
2019-02-05T07:19:12.158Z,41.90
2019-02-05T07:21:42.895Z,34.67
2019-02-05T07:24:13.100Z,37.67
2019-02-05T07:26:43.424Z,43.65
2019-02-05T07:29:13.645Z,41.35
2019-02-05T07:31:46.351Z,37.23
2019-02-05T07:34:16.535Z,32.65
2019-02-05T07:36:47.414Z,30.95
2019-02-05T07:39:17.643Z,32.63
2019-02-05T07:41:47.813Z,30.72
2019-02-05T07:44:18.015Z,32.08
2019-02-05T07:46:48.273Z,40.88
2019-02-05T07:49:20.938Z,42.73
2019-02-05T07:51:51.174Z,51.55
2019-02-05T07:54:25.343Z,44.27
2019-02-05T07:56:56.046Z,42.70
2019-02-05T07:59:26.335Z,44.55
2019-02-05T08:01:56.906Z,34.67
2019-02-05T08:04:28.548Z,42.55
2019-02-05T08:07:01.198Z,37.42
2019-02-05T08:09:35.265Z,38.78
2019-02-05T08:12:05.834Z,36.35
2019-02-05T08:14:36.023Z,36.55
2019-02-05T08:17:07.164Z,41.28
2019-02-05T08:19:54.611Z,34.25
2019-02-05T08:22:24.756Z,39.65
2019-02-05T08:24:56.617Z,40.65
2019-02-05T08:27:30.344Z,40.30
2019-02-05T08:30:00.888Z,50.75
2019-02-05T08:32:33.448Z,52.10
2019-02-05T08:35:03.735Z,39.13
2019-02-05T08:37:34.076Z,42.45
2019-02-05T08:40:08.294Z,37.90
2019-02-05T08:42:38.984Z,42.67
2019-02-05T08:45:14.258Z,40.52
2019-02-05T08:47:43.498Z,39.10
2019-02-05T08:50:16.362Z,30.05
2019-02-05T08:52:46.677Z,39.60
2019-02-05T08:55:18.154Z,44.08
2019-02-05T08:57:48.955Z,39.67
2019-02-05T09:00:21.518Z,31.73
2019-02-05T09:02:52.155Z,28.95
2019-02-05T09:05:22.382Z,37.53
2019-02-05T09:07:52.715Z,36.98
2019-02-05T09:10:27.994Z,34.33
2019-02-05T09:12:58.187Z,35.05
2019-02-05T09:15:29.806Z,33.18
2019-02-05T09:18:00.379Z,34.25
2019-02-05T09:20:31.347Z,27.40
2019-02-05T09:23:01.571Z,34.85
2019-02-05T09:25:31.816Z,29.27
2019-02-05T09:28:02.472Z,31.57
2019-02-05T09:30:34.249Z,37.05
2019-02-05T09:33:07.365Z,29.45
2019-02-05T09:35:37.555Z,29.45
2019-02-05T09:38:07.755Z,29.27
2019-02-05T09:40:38.015Z,30.65
2019-02-05T09:43:08.910Z,30.48
2019-02-05T09:45:41.034Z,24.63
2019-02-05T09:48:11.240Z,28.77
2019-02-05T09:50:44.799Z,26.77
2019-02-05T09:53:14.523Z,35.10
2019-02-05T09:55:45.631Z,32.98
2019-02-05T09:58:16.136Z,43.35
2019-02-05T10:00:47.532Z,29.27
2019-02-05T10:03:18.220Z,26.05
2019-02-05T10:05:50.210Z,26.85
2019-02-05T10:08:21.145Z,34.33
2019-02-05T10:10:51.420Z,27.65
2019-02-05T10:13:23.017Z,23.07
2019-02-05T10:15:55.231Z,23.18
2019-02-05T10:18:25.856Z,21.45
2019-02-05T10:20:56.519Z,23.22
2019-02-05T10:23:26.907Z,20.55
2019-02-05T10:25:58.969Z,24.00
2019-02-05T10:28:30.921Z,15.40
2019-02-05T10:31:04.094Z,16.57
2019-02-05T10:33:37.357Z,26.25
2019-02-05T10:36:07.698Z,22.98
2019-02-05T10:38:37.949Z,21.75
2019-02-05T10:41:08.814Z,21.35
2019-02-05T10:43:39.000Z,17.20
2019-02-05T10:46:09.484Z,18.77
2019-02-05T10:48:39.894Z,20.37
2019-02-05T10:51:11.233Z,19.82
2019-02-05T10:53:41.550Z,22.37
2019-02-05T10:56:12.291Z,24.32
2019-02-05T10:58:42.452Z,21.85
2019-02-05T11:01:12.695Z,20.77
2019-02-05T11:03:44.721Z,19.75
2019-02-05T11:06:15.810Z,15.35
2019-02-05T11:08:46.456Z,18.70
2019-02-05T11:11:19.067Z,16.82
2019-02-05T11:13:50.663Z,16.25
2019-02-05T11:16:20.839Z,14.38
2019-02-05T11:18:51.575Z,13.58
2019-02-05T11:21:24.664Z,14.47
2019-02-05T11:23:55.899Z,18.12
2019-02-05T11:26:26.052Z,14.75
2019-02-05T11:28:56.323Z,15.32
2019-02-05T11:31:26.562Z,19.52
2019-02-05T11:33:57.831Z,16.07
2019-02-05T11:36:29.778Z,14.65
2019-02-05T11:39:00.408Z,11.03
2019-02-05T11:41:30.797Z,13.83
2019-02-05T11:44:01.658Z,14.80
2019-02-05T11:46:34.901Z,15.10
2019-02-05T11:49:06.401Z,15.90
2019-02-05T11:51:36.828Z,16.35
2019-02-05T11:54:09.411Z,12.63
2019-02-05T11:56:39.674Z,14.23
2019-02-05T11:59:11.657Z,12.70
2019-02-05T12:01:43.234Z,9.43
2019-02-05T12:04:15.617Z,11.63
2019-02-05T12:06:47.877Z,8.45
2019-02-05T12:09:32.958Z,14.30
2019-02-05T12:12:06.204Z,10.70
2019-02-05T12:14:39.678Z,15.55
2019-02-05T12:17:15.298Z,12.55
2019-02-05T12:19:45.896Z,13.28
2019-02-05T12:22:25.795Z,15.13
2019-02-05T12:25:13.175Z,10.15
2019-02-05T12:27:56.082Z,12.28
2019-02-05T12:30:44.211Z,14.58
2019-02-05T12:33:11.770Z,13.43
2019-02-05T12:35:44.352Z,11.48
2019-02-05T12:38:47.373Z,13.13
2019-02-05T12:41:19.864Z,14.65
2019-02-05T12:44:01.183Z,12.05
2019-02-05T12:46:33.976Z,10.98
2019-02-05T12:49:06.011Z,12.85
2019-02-05T12:51:37.155Z,10.05
2019-02-05T12:54:11.705Z,11.63
2019-02-05T12:56:59.056Z,11.50
2019-02-05T12:59:30.729Z,13.20
2019-02-05T13:02:01.751Z,10.18
2019-02-05T13:04:40.002Z,10.88
2019-02-05T13:07:10.213Z,10.65
2019-02-05T13:09:53.359Z,11.95
2019-02-05T13:12:29.780Z,15.08
2019-02-05T13:15:07.979Z,12.45
2019-02-05T13:17:42.870Z,13.20
2019-02-05T13:20:30.332Z,20.02
2019-02-05T13:23:12.920Z,14.53
2019-02-05T13:26:07.551Z,17.57
2019-02-05T13:28:50.370Z,15.32
2019-02-05T13:31:30.032Z,15.83
2019-02-05T13:34:11.427Z,16.17
2019-02-05T13:36:52.677Z,20.27
2019-02-05T13:39:49.541Z,11.38
2019-02-05T13:43:23.047Z,17.87
2019-02-05T13:46:14.492Z,16.30
2019-02-05T13:53:11.890Z,13.15
2019-02-05T14:08:47.377Z,12.88
2019-02-05T14:12:06.140Z,13.25
2019-02-05T14:15:19.107Z,8.63
2019-02-05T14:18:10.822Z,12.33
2019-02-05T14:23:51.674Z,11.97
2019-02-05T14:26:26.711Z,9.80
2019-02-05T14:29:34.588Z,12.65
2019-02-05T14:32:41.179Z,10.03
2019-02-05T14:35:21.895Z,10.35
2019-02-05T14:38:03.182Z,11.83
2019-02-05T14:41:31.211Z,11.00
2019-02-05T14:44:08.729Z,11.08
2019-02-05T14:46:40.322Z,9.53
2019-02-05T14:49:10.947Z,11.48
2019-02-05T14:51:41.922Z,13.88
2019-02-05T14:56:53.108Z,11.25
2019-02-05T14:59:24.224Z,11.20
2019-02-05T15:01:55.060Z,10.08
2019-02-05T15:04:25.752Z,9.50
2019-02-05T15:06:57.595Z,12.33
2019-02-05T15:09:29.047Z,14.87
2019-02-05T15:12:04.082Z,13.50
2019-02-05T15:14:37.315Z,14.25
2019-02-05T15:17:07.475Z,13.00
2019-02-05T15:19:39.981Z,11.38
2019-02-05T15:22:12.395Z,11.90
2019-02-05T15:24:45.264Z,11.30
2019-02-05T15:27:16.387Z,10.30
2019-02-05T15:29:46.653Z,12.13
2019-02-05T15:32:53.133Z,10.98
2019-02-05T15:35:23.894Z,11.03
2019-02-05T15:37:56.542Z,16.60
2019-02-05T15:40:27.441Z,28.50
2019-02-05T15:42:58.344Z,17.30
2019-02-05T15:45:28.955Z,16.50
2019-02-05T15:47:59.389Z,10.63
2019-02-05T15:50:31.214Z,13.28
2019-02-05T15:53:01.452Z,8.23
2019-02-05T15:55:31.791Z,9.85
2019-02-05T15:58:03.942Z,11.15
2019-02-05T16:00:36.359Z,10.88
2019-02-05T16:03:10.684Z,8.23
2019-02-05T16:05:43.784Z,10.55
2019-02-05T16:08:14.399Z,22.00
2019-02-05T16:10:45.193Z,18.60
2019-02-05T16:13:21.869Z,8.45
2019-02-05T16:15:55.139Z,8.40
2019-02-05T16:18:26.856Z,15.95
2019-02-05T16:20:57.212Z,68.83
2019-02-05T16:23:28.789Z,35.58
2019-02-05T16:25:59.023Z,10.05
2019-02-05T16:28:33.493Z,14.15
2019-02-05T16:31:08.644Z,11.95
2019-02-05T16:33:39.031Z,12.40
2019-02-05T16:36:09.357Z,10.35
2019-02-05T16:38:41.899Z,14.38
2019-02-05T16:41:12.261Z,16.87
2019-02-05T16:43:42.793Z,18.15
2019-02-05T16:46:12.999Z,20.52
2019-02-05T16:48:43.343Z,18.40
2019-02-05T16:51:13.694Z,11.78
2019-02-05T16:53:44.056Z,10.03
2019-02-05T16:56:18.008Z,9.83
2019-02-05T16:58:55.368Z,13.50
2019-02-05T17:01:25.687Z,11.88
2019-02-05T17:03:56.043Z,8.30
2019-02-05T17:06:26.685Z,9.23
2019-02-05T17:08:57.034Z,7.53
2019-02-05T17:11:27.668Z,8.43
2019-02-05T17:13:59.388Z,12.28
2019-02-05T17:17:51.400Z,8.73
2019-02-05T17:20:33.180Z,9.58
2019-02-05T17:23:23.820Z,9.45
2019-02-05T17:26:03.468Z,13.85
2019-02-05T17:28:49.401Z,8.03
2019-02-05T17:31:56.518Z,5.40
2019-02-05T17:34:41.653Z,6.35
2019-02-05T17:37:26.858Z,6.50
2019-02-05T17:40:09.861Z,6.00
2019-02-05T17:50:09.936Z,11.50
2019-02-05T17:52:47.379Z,4.33
2019-02-05T17:55:21.194Z,6.90
2019-02-05T17:57:53.732Z,10.00
2019-02-05T18:00:29.594Z,6.95
2019-02-05T18:02:59.957Z,8.00
2019-02-05T18:05:34.871Z,10.45
2019-02-05T18:08:07.601Z,10.05
2019-02-05T18:11:20.458Z,8.13
2019-02-05T18:14:24.448Z,6.08
2019-02-05T18:17:51.416Z,6.37
2019-02-05T18:20:33.181Z,5.15
2019-02-05T18:23:22.585Z,10.35
2019-02-05T18:26:11.867Z,9.18
2019-02-05T18:28:40.470Z,6.72
2019-02-05T18:31:22.887Z,8.23
2019-02-05T18:34:36.849Z,7.05
2019-02-05T18:36:58.966Z,7.80
2019-02-05T18:39:50.765Z,7.12
2019-02-05T18:42:36.041Z,7.22
2019-02-05T18:49:10.755Z,5.05
2019-02-05T18:51:09.817Z,9.78
2019-02-05T18:57:14.726Z,6.25
2019-02-05T18:59:58.699Z,8.00
2019-02-05T19:03:19.311Z,9.57
2019-02-05T19:05:53.916Z,7.37
2019-02-05T19:08:34.931Z,15.60
2019-02-05T19:11:18.039Z,12.75
2019-02-05T19:13:51.542Z,11.93
2019-02-05T19:16:23.747Z,9.48
2019-02-05T19:18:53.961Z,9.65
2019-02-05T19:21:46.326Z,6.90
2019-02-05T19:24:36.956Z,7.22
2019-02-05T19:27:09.756Z,6.95
2019-02-05T19:29:42.595Z,9.00
2019-02-05T19:32:16.337Z,9.70
2019-02-05T19:34:51.323Z,10.23
2019-02-05T19:37:23.120Z,7.75
2019-02-05T19:39:57.152Z,7.62
2019-02-05T19:42:27.434Z,7.37
2019-02-05T19:45:25.576Z,6.03
2019-02-05T19:47:58.370Z,11.88
2019-02-05T19:51:09.958Z,12.18
2019-02-05T19:54:12.140Z,8.05
2019-02-05T19:56:44.847Z,9.45
2019-02-05T19:59:27.494Z,5.80
2019-02-05T20:02:21.904Z,8.98
2019-02-05T20:05:37.265Z,9.98
2019-02-05T20:08:26.756Z,8.68
2019-02-05T20:11:22.429Z,6.55
2019-02-05T20:14:13.303Z,7.78
2019-02-05T20:17:08.363Z,7.80
2019-02-05T20:19:58.383Z,9.50
2019-02-05T20:22:55.731Z,11.93
2019-02-05T20:26:34.501Z,6.97
2019-02-05T20:29:22.421Z,7.92
2019-02-05T20:35:12.114Z,10.23
2019-02-05T20:38:06.960Z,9.90
2019-02-05T20:40:45.588Z,7.05
2019-02-05T20:44:11.494Z,8.08
2019-02-05T20:50:34.316Z,13.45
2019-02-05T20:54:18.478Z,10.93
2019-02-05T20:56:43.298Z,9.88
2019-02-05T20:59:39.934Z,9.15
2019-02-05T21:02:11.373Z,11.80
2019-02-05T21:04:48.584Z,11.83
2019-02-05T21:07:15.260Z,11.80
2019-02-05T21:09:45.478Z,10.85
2019-02-05T21:12:15.975Z,14.60
2019-02-05T21:14:46.699Z,10.38
2019-02-05T21:17:21.689Z,10.90
2019-02-05T21:19:56.506Z,9.48
2019-02-05T21:22:26.634Z,9.15
2019-02-05T21:24:57.805Z,7.85
2019-02-05T21:27:30.873Z,5.95
2019-02-05T21:30:11.136Z,7.00
2019-02-05T21:32:39.818Z,8.38
2019-02-05T21:35:12.025Z,13.22
2019-02-05T21:37:44.480Z,9.80
2019-02-05T21:40:17.599Z,12.05
2019-02-05T21:42:52.637Z,8.70
2019-02-05T21:45:24.315Z,12.88
2019-02-05T21:47:56.008Z,9.13
2019-02-05T21:50:30.020Z,13.00
2019-02-05T21:53:00.651Z,11.97
2019-02-05T21:55:30.931Z,11.53
2019-02-05T21:58:01.361Z,9.48
2019-02-05T22:00:32.760Z,12.28
2019-02-05T22:03:03.663Z,15.85
2019-02-05T22:05:34.120Z,17.80
2019-02-05T22:08:04.831Z,13.13
2019-02-05T22:10:35.292Z,12.65
2019-02-05T22:13:07.264Z,13.53
2019-02-05T22:15:40.216Z,13.13
2019-02-05T22:18:10.443Z,16.37
2019-02-05T22:20:40.924Z,18.55
2019-02-05T22:23:11.558Z,17.90
2019-02-05T22:25:45.111Z,17.90
2019-02-05T22:28:15.376Z,16.60
2019-02-05T22:30:46.617Z,13.93
2019-02-05T22:33:18.555Z,12.73
2019-02-05T22:35:48.747Z,13.38
2019-02-05T22:38:22.684Z,17.30
2019-02-05T22:40:54.692Z,18.32
2019-02-05T22:43:25.923Z,19.42
2019-02-05T22:45:56.130Z,18.52
2019-02-05T22:48:32.585Z,17.17
2019-02-05T22:51:04.888Z,15.78
2019-02-05T22:53:35.367Z,17.70
2019-02-05T22:56:05.695Z,18.73
2019-02-05T22:58:36.042Z,16.97
2019-02-05T23:01:28.257Z,21.00
2019-02-05T23:04:16.937Z,20.65
2019-02-05T23:07:06.712Z,17.95
2019-02-05T23:09:42.852Z,19.85
2019-02-05T23:12:28.818Z,19.67
2019-02-05T23:15:21.389Z,18.57
2019-02-05T23:17:51.833Z,20.27
2019-02-05T23:20:23.100Z,21.77
2019-02-05T23:22:53.553Z,19.85
2019-02-05T23:25:24.651Z,20.55
2019-02-05T23:27:54.940Z,29.50
2019-02-05T23:30:30.268Z,20.35
2019-02-05T23:33:00.721Z,19.50
2019-02-05T23:35:35.189Z,21.05
2019-02-05T23:38:05.493Z,24.07
2019-02-05T23:40:35.649Z,23.55
2019-02-05T23:43:07.218Z,23.18
2019-02-05T23:45:37.494Z,24.23
2019-02-05T23:48:07.925Z,27.42
2019-02-05T23:50:41.340Z,27.35
2019-02-05T23:53:11.623Z,24.52
2019-02-05T23:55:41.811Z,23.02
2019-02-05T23:58:11.967Z,24.37
